sensor_id;sensor_type;location;lat;lon;timestamp;pressure;altitude;pressure_sealevel;temperature;humidity
71772;BME280;59606;52.138;5.424;2023-04-08T00:00:49;102412.63;;;8.25;100.00
71772;BME280;59606;52.138;5.424;2023-04-08T00:03:15;102415.22;;;8.23;100.00
71772;BME280;59606;52.138;5.424;2023-04-08T00:05:42;102412.69;;;8.20;100.00
71772;BME280;59606;52.138;5.424;2023-04-08T00:08:09;102414.50;;;8.17;100.00
71772;BME280;59606;52.138;5.424;2023-04-08T00:10:35;102413.75;;;8.12;100.00
71772;BME280;59606;52.138;5.424;2023-04-08T00:13:02;102409.47;;;8.08;100.00
71772;BME280;59606;52.138;5.424;2023-04-08T00:15:28;102426.78;;;8.09;100.00
71772;BME280;59606;52.138;5.424;2023-04-08T00:17:55;102420.81;;;8.03;100.00
71772;BME280;59606;52.138;5.424;2023-04-08T00:20:22;102420.84;;;8.02;100.00
71772;BME280;59606;52.138;5.424;2023-04-08T00:22:49;102414.81;;;8.01;100.00
71772;BME280;59606;52.138;5.424;2023-04-08T00:25:16;102422.59;;;8.01;100.00
71772;BME280;59606;52.138;5.424;2023-04-08T00:27:42;102416.66;;;7.95;100.00
71772;BME280;59606;52.138;5.424;2023-04-08T00:30:09;102417.50;;;7.94;100.00
71772;BME280;59606;52.138;5.424;2023-04-08T00:32:37;102419.22;;;7.96;100.00
71772;BME280;59606;52.138;5.424;2023-04-08T00:35:04;102414.91;;;7.94;100.00
71772;BME280;59606;52.138;5.424;2023-04-08T00:37:30;102419.22;;;7.96;100.00
71772;BME280;59606;52.138;5.424;2023-04-08T00:39:58;102420.00;;;8.00;100.00
71772;BME280;59606;52.138;5.424;2023-04-08T00:42:24;102425.19;;;8.01;100.00
71772;BME280;59606;52.138;5.424;2023-04-08T00:44:51;102426.94;;;7.99;100.00
71772;BME280;59606;52.138;5.424;2023-04-08T00:47:18;102423.50;;;7.99;100.00
71772;BME280;59606;52.138;5.424;2023-04-08T00:49:44;102426.16;;;7.96;100.00
71772;BME280;59606;52.138;5.424;2023-04-08T00:52:11;102426.94;;;7.98;100.00
71772;BME280;59606;52.138;5.424;2023-04-08T00:54:37;102429.53;;;7.99;100.00
71772;BME280;59606;52.138;5.424;2023-04-08T00:57:05;102428.69;;;7.99;100.00
71772;BME280;59606;52.138;5.424;2023-04-08T00:59:32;102433.06;;;7.95;100.00
71772;BME280;59606;52.138;5.424;2023-04-08T01:02:22;102433.13;;;7.92;100.00
71772;BME280;59606;52.138;5.424;2023-04-08T01:07:21;102440.03;;;7.93;100.00
71772;BME280;59606;52.138;5.424;2023-04-08T01:10:14;102440.94;;;7.91;100.00
71772;BME280;59606;52.138;5.424;2023-04-08T01:12:44;102443.53;;;7.91;100.00
71772;BME280;59606;52.138;5.424;2023-04-08T01:15:14;102444.38;;;7.91;100.00
71772;BME280;59606;52.138;5.424;2023-04-08T01:17:42;102442.63;;;7.93;100.00
71772;BME280;59606;52.138;5.424;2023-04-08T01:20:10;102447.91;;;7.89;100.00
71772;BME280;59606;52.138;5.424;2023-04-08T01:22:55;102443.66;;;7.85;100.00
71772;BME280;59606;52.138;5.424;2023-04-08T01:25:27;102446.31;;;7.82;100.00
71772;BME280;59606;52.138;5.424;2023-04-08T01:27:57;102443.81;;;7.74;100.00
71772;BME280;59606;52.138;5.424;2023-04-08T01:30:24;102447.34;;;7.71;100.00
71772;BME280;59606;52.138;5.424;2023-04-08T01:32:53;102449.94;;;7.71;100.00
71772;BME280;59606;52.138;5.424;2023-04-08T01:35:21;102441.25;;;7.72;100.00
71772;BME280;59606;52.138;5.424;2023-04-08T01:37:50;102442.97;;;7.73;100.00
71772;BME280;59606;52.138;5.424;2023-04-08T01:40:18;102447.31;;;7.73;100.00
71772;BME280;59606;52.138;5.424;2023-04-08T01:42:47;102453.38;;;7.70;100.00
71772;BME280;59606;52.138;5.424;2023-04-08T01:45:14;102455.97;;;7.72;100.00
71772;BME280;59606;52.138;5.424;2023-04-08T01:47:43;102446.53;;;7.66;100.00
71772;BME280;59606;52.138;5.424;2023-04-08T01:50:13;102452.63;;;7.65;100.00
71772;BME280;59606;52.138;5.424;2023-04-08T01:52:45;102456.09;;;7.64;100.00
71772;BME280;59606;52.138;5.424;2023-04-08T01:55:13;102453.47;;;7.66;100.00
71772;BME280;59606;52.138;5.424;2023-04-08T01:57:40;102459.56;;;7.65;100.00
71772;BME280;59606;52.138;5.424;2023-04-08T02:00:11;102454.38;;;7.63;100.00
71772;BME280;59606;52.138;5.424;2023-04-08T02:02:41;102456.97;;;7.63;100.00
71772;BME280;59606;52.138;5.424;2023-04-08T02:05:08;102459.53;;;7.66;100.00
71772;BME280;59606;52.138;5.424;2023-04-08T02:07:35;102456.03;;;7.69;100.00
71772;BME280;59606;52.138;5.424;2023-04-08T02:10:02;102454.38;;;7.63;100.00
71772;BME280;59606;52.138;5.424;2023-04-08T02:12:29;102459.59;;;7.62;100.00
71772;BME280;59606;52.138;5.424;2023-04-08T02:14:56;102445.78;;;7.60;100.00
71772;BME280;59606;52.138;5.424;2023-04-08T02:17:44;102455.28;;;7.61;100.00
71772;BME280;59606;52.138;5.424;2023-04-08T02:20:42;102448.34;;;7.61;100.00
71772;BME280;59606;52.138;5.424;2023-04-08T02:23:18;102454.41;;;7.62;100.00
71772;BME280;59606;52.138;5.424;2023-04-08T02:25:46;102457.06;;;7.57;100.00
71772;BME280;59606;52.138;5.424;2023-04-08T02:28:14;102456.25;;;7.53;100.00
71772;BME280;59606;52.138;5.424;2023-04-08T02:30:47;102458.91;;;7.50;100.00
71772;BME280;59606;52.138;5.424;2023-04-08T02:33:17;102457.28;;;7.45;100.00
71772;BME280;59606;52.138;5.424;2023-04-08T02:35:47;102459.88;;;7.45;100.00
71772;BME280;59606;52.138;5.424;2023-04-08T02:38:15;102466.81;;;7.43;100.00
71772;BME280;59606;52.138;5.424;2023-04-08T02:40:42;102464.25;;;7.41;100.00
71772;BME280;59606;52.138;5.424;2023-04-08T02:43:08;102463.41;;;7.39;100.00
71772;BME280;59606;52.138;5.424;2023-04-08T02:45:41;102467.78;;;7.36;100.00
71772;BME280;59606;52.138;5.424;2023-04-08T02:48:08;102474.75;;;7.30;100.00
71772;BME280;59606;52.138;5.424;2023-04-08T02:50:35;102469.69;;;7.24;100.00
71772;BME280;59606;52.138;5.424;2023-04-08T02:53:02;102474.00;;;7.24;100.00
71772;BME280;59606;52.138;5.424;2023-04-08T02:55:29;102475.75;;;7.23;100.00
71772;BME280;59606;52.138;5.424;2023-04-08T02:57:55;102482.69;;;7.21;100.00
71772;BME280;59606;52.138;5.424;2023-04-08T03:00:22;102485.34;;;7.18;100.00
71772;BME280;59606;52.138;5.424;2023-04-08T03:02:48;102481.84;;;7.19;100.00
71772;BME280;59606;52.138;5.424;2023-04-08T03:05:15;102487.91;;;7.18;100.00
71772;BME280;59606;52.138;5.424;2023-04-08T03:07:42;102489.63;;;7.19;100.00
71772;BME280;59606;52.138;5.424;2023-04-08T03:10:08;102487.03;;;7.19;100.00
71772;BME280;59606;52.138;5.424;2023-04-08T03:12:35;102490.50;;;7.18;100.00
71772;BME280;59606;52.138;5.424;2023-04-08T03:15:02;102487.03;;;7.19;100.00
71772;BME280;59606;52.138;5.424;2023-04-08T03:17:29;102486.19;;;7.17;100.00
71772;BME280;59606;52.138;5.424;2023-04-08T03:19:59;102482.75;;;7.17;100.00
71772;BME280;59606;52.138;5.424;2023-04-08T03:22:26;102485.38;;;7.15;100.00
71772;BME280;59606;52.138;5.424;2023-04-08T03:24:53;102490.53;;;7.17;100.00
71772;BME280;59606;52.138;5.424;2023-04-08T03:27:19;102482.75;;;7.17;100.00
71772;BME280;59606;52.138;5.424;2023-04-08T03:29:46;102487.06;;;7.18;100.00
71772;BME280;59606;52.138;5.424;2023-04-08T03:32:13;102487.88;;;7.20;100.00
71772;BME280;59606;52.138;5.424;2023-04-08T03:34:40;102486.22;;;7.16;100.00
71772;BME280;59606;52.138;5.424;2023-04-08T03:37:07;102489.66;;;7.16;100.00
71772;BME280;59606;52.138;5.424;2023-04-08T03:39:33;102486.22;;;7.16;100.00
71772;BME280;59606;52.138;5.424;2023-04-08T03:42:00;102487.16;;;7.12;100.00
71772;BME280;59606;52.138;5.424;2023-04-08T03:44:28;102497.53;;;7.10;100.00
71772;BME280;59606;52.138;5.424;2023-04-08T03:46:54;102494.13;;;7.08;100.00
71772;BME280;59606;52.138;5.424;2023-04-08T03:49:21;102494.97;;;7.08;100.00
71772;BME280;59606;52.138;5.424;2023-04-08T03:51:48;102501.88;;;7.06;100.00
71772;BME280;59606;52.138;5.424;2023-04-08T03:54:14;102491.53;;;7.08;100.00
71772;BME280;59606;52.138;5.424;2023-04-08T03:56:41;102494.19;;;7.02;100.00
71772;BME280;59606;52.138;5.424;2023-04-08T03:59:07;102502.00;;;6.99;100.00
71772;BME280;59606;52.138;5.424;2023-04-08T04:01:34;102505.56;;;6.90;100.00
71772;BME280;59606;52.138;5.424;2023-04-08T04:04:01;102504.78;;;6.85;100.00
71772;BME280;59606;52.138;5.424;2023-04-08T04:06:27;102511.69;;;6.84;100.00
71772;BME280;59606;52.138;5.424;2023-04-08T04:08:54;102504.78;;;6.83;100.00
71772;BME280;59606;52.138;5.424;2023-04-08T04:11:20;102518.66;;;6.81;100.00
71772;BME280;59606;52.138;5.424;2023-04-08T04:13:48;102514.31;;;6.80;100.00
71772;BME280;59606;52.138;5.424;2023-04-08T04:16:14;102522.09;;;6.80;100.00
71772;BME280;59606;52.138;5.424;2023-04-08T04:18:41;102526.44;;;6.76;100.00
71772;BME280;59606;52.138;5.424;2023-04-08T04:21:08;102529.09;;;6.72;100.00
71772;BME280;59606;52.138;5.424;2023-04-08T04:23:34;102534.31;;;6.67;100.00
71772;BME280;59606;52.138;5.424;2023-04-08T04:26:07;102530.09;;;6.60;100.00
71772;BME280;59606;52.138;5.424;2023-04-08T04:28:34;102533.59;;;6.57;100.00
71772;BME280;59606;52.138;5.424;2023-04-08T04:31:00;102537.06;;;6.55;100.00
71772;BME280;59606;52.138;5.424;2023-04-08T04:33:27;102541.41;;;6.50;100.00
71772;BME280;59606;52.138;5.424;2023-04-08T04:35:53;102544.06;;;6.44;100.00
71772;BME280;59606;52.138;5.424;2023-04-08T04:38:20;102540.66;;;6.40;100.00
71772;BME280;59606;52.138;5.424;2023-04-08T04:40:47;102544.16;;;6.37;100.00
71772;BME280;59606;52.138;5.424;2023-04-08T04:43:13;102554.53;;;6.34;100.00
71772;BME280;59606;52.138;5.424;2023-04-08T04:45:40;102548.53;;;6.31;100.00
71772;BME280;59606;52.138;5.424;2023-04-08T04:48:07;102551.16;;;6.28;99.77
71772;BME280;59606;52.138;5.424;2023-04-08T04:50:33;102559.84;;;6.21;99.78
71772;BME280;59606;52.138;5.424;2023-04-08T04:53:00;102558.13;;;6.17;99.82
71772;BME280;59606;52.138;5.424;2023-04-08T04:55:26;102563.34;;;6.15;99.61
71772;BME280;59606;52.138;5.424;2023-04-08T04:57:53;102560.78;;;6.12;99.49
71772;BME280;59606;52.138;5.424;2023-04-08T05:00:19;102573.72;;;6.10;99.71
71772;BME280;59606;52.138;5.424;2023-04-08T05:02:46;102572.00;;;6.09;99.90
71772;BME280;59606;52.138;5.424;2023-04-08T05:05:13;102572.88;;;6.07;99.68
71772;BME280;59606;52.138;5.424;2023-04-08T05:07:39;102571.19;;;6.03;99.31
71772;BME280;59606;52.138;5.424;2023-04-08T05:10:06;102575.53;;;6.01;99.32
71772;BME280;59606;52.138;5.424;2023-04-08T05:12:33;102572.94;;;5.99;99.95
71772;BME280;59606;52.138;5.424;2023-04-08T05:14:59;102577.28;;;5.96;99.56
71772;BME280;59606;52.138;5.424;2023-04-08T05:17:26;102577.28;;;5.91;99.54
71772;BME280;59606;52.138;5.424;2023-04-08T05:19:52;102586.78;;;5.90;99.27
71772;BME280;59606;52.138;5.424;2023-04-08T05:22:19;102585.94;;;5.87;99.25
71772;BME280;59606;52.138;5.424;2023-04-08T05:24:46;102584.25;;;5.80;98.91
71772;BME280;59606;52.138;5.424;2023-04-08T05:27:13;102588.63;;;5.75;99.13
71772;BME280;59606;52.138;5.424;2023-04-08T05:29:39;102592.91;;;5.73;99.18
71772;BME280;59606;52.138;5.424;2023-04-08T05:32:06;102601.56;;;5.68;98.80
71772;BME280;59606;52.138;5.424;2023-04-08T05:34:33;102595.59;;;5.63;98.35
71772;BME280;59606;52.138;5.424;2023-04-08T05:37:00;102596.44;;;5.62;98.38
71772;BME280;59606;52.138;5.424;2023-04-08T05:39:26;102593.03;;;5.60;98.49
71772;BME280;59606;52.138;5.424;2023-04-08T05:41:53;102596.47;;;5.58;98.46
71772;BME280;59606;52.138;5.424;2023-04-08T05:44:20;102599.91;;;5.58;98.03
71772;BME280;59606;52.138;5.424;2023-04-08T05:46:46;102604.25;;;5.55;98.46
71772;BME280;59606;52.138;5.424;2023-04-08T05:49:13;102601.66;;;5.53;98.23
71772;BME280;59606;52.138;5.424;2023-04-08T05:51:42;102606.84;;;5.49;97.93
71772;BME280;59606;52.138;5.424;2023-04-08T05:54:09;102609.44;;;5.46;97.77
71772;BME280;59606;52.138;5.424;2023-04-08T05:56:36;102614.63;;;5.46;97.72
71772;BME280;59606;52.138;5.424;2023-04-08T05:59:02;102612.03;;;5.46;97.30
71772;BME280;59606;52.138;5.424;2023-04-08T06:01:29;102606.88;;;5.47;97.38
71772;BME280;59606;52.138;5.424;2023-04-08T06:03:55;102612.00;;;5.52;97.41
71772;BME280;59606;52.138;5.424;2023-04-08T06:06:23;102614.59;;;5.55;97.47
71772;BME280;59606;52.138;5.424;2023-04-08T06:08:51;102618.88;;;5.57;96.92
71772;BME280;59606;52.138;5.424;2023-04-08T06:11:18;102615.41;;;5.60;96.87
71772;BME280;59606;52.138;5.424;2023-04-08T06:13:44;102614.53;;;5.62;96.79
71772;BME280;59606;52.138;5.424;2023-04-08T06:16:12;102616.22;;;5.68;97.30
71772;BME280;59606;52.138;5.424;2023-04-08T06:18:39;102614.50;;;5.70;96.92
71772;BME280;59606;52.138;5.424;2023-04-08T06:21:06;102621.38;;;5.73;96.92
71772;BME280;59606;52.138;5.424;2023-04-08T06:23:33;102616.19;;;5.74;96.10
71772;BME280;59606;52.138;5.424;2023-04-08T06:26:00;102623.09;;;5.74;95.98
71772;BME280;59606;52.138;5.424;2023-04-08T06:28:28;102623.91;;;5.82;96.03
71772;BME280;59606;52.138;5.424;2023-04-08T06:30:55;102632.47;;;5.91;96.21
71772;BME280;59606;52.138;5.424;2023-04-08T06:33:22;102642.81;;;5.93;96.24
71772;BME280;59606;52.138;5.424;2023-04-08T06:35:48;102649.72;;;5.96;95.53
71772;BME280;59606;52.138;5.424;2023-04-08T06:38:15;102648.00;;;5.93;95.16
71772;BME280;59606;52.138;5.424;2023-04-08T06:40:41;102652.31;;;5.94;94.85
71772;BME280;59606;52.138;5.424;2023-04-08T06:43:08;102662.63;;;6.02;95.34
71772;BME280;59606;52.138;5.424;2023-04-08T06:45:34;102656.53;;;6.09;95.35
71772;BME280;59606;52.138;5.424;2023-04-08T06:48:01;102652.19;;;6.14;94.92
71772;BME280;59606;52.138;5.424;2023-04-08T06:50:27;102664.22;;;6.20;94.65
71772;BME280;59606;52.138;5.424;2023-04-08T06:52:54;102666.81;;;6.18;94.34
71772;BME280;59606;52.138;5.424;2023-04-08T06:55:20;102656.41;;;6.26;94.91
71772;BME280;59606;52.138;5.424;2023-04-08T06:57:47;102660.72;;;6.25;93.44
71772;BME280;59606;52.138;5.424;2023-04-08T07:00:13;102677.94;;;6.31;94.05
71772;BME280;59606;52.138;5.424;2023-04-08T07:02:40;102669.25;;;6.36;94.02
71772;BME280;59606;52.138;5.424;2023-04-08T07:05:07;102674.34;;;6.49;93.30
71772;BME280;59606;52.138;5.424;2023-04-08T07:07:34;102681.25;;;6.48;91.94
71772;BME280;59606;52.138;5.424;2023-04-08T07:10:01;102679.63;;;6.38;91.95
71772;BME280;59606;52.138;5.424;2023-04-08T07:12:27;102687.28;;;6.52;92.22
71772;BME280;59606;52.138;5.424;2023-04-08T07:14:54;102688.97;;;6.53;91.29
71772;BME280;59606;52.138;5.424;2023-04-08T07:17:20;102688.09;;;6.55;91.05
71772;BME280;59606;52.138;5.424;2023-04-08T07:19:46;102689.69;;;6.70;91.04
71772;BME280;59606;52.138;5.424;2023-04-08T07:22:14;102698.25;;;6.78;89.85
71772;BME280;59606;52.138;5.424;2023-04-08T07:24:41;102702.59;;;6.76;90.26
71772;BME280;59606;52.138;5.424;2023-04-08T07:27:10;102698.19;;;6.86;89.70
71772;BME280;59606;52.138;5.424;2023-04-08T07:29:37;102701.59;;;6.90;89.87
71772;BME280;59606;52.138;5.424;2023-04-08T07:32:03;102700.66;;;7.01;89.41
71772;BME280;59606;52.138;5.424;2023-04-08T07:34:30;102711.75;;;7.13;89.30
71772;BME280;59606;52.138;5.424;2023-04-08T07:36:57;102709.97;;;7.18;89.12
71772;BME280;59606;52.138;5.424;2023-04-08T07:39:23;102711.66;;;7.22;88.33
71772;BME280;59606;52.138;5.424;2023-04-08T07:41:50;102709.81;;;7.30;88.40
71772;BME280;59606;52.138;5.424;2023-04-08T07:44:16;102709.69;;;7.41;87.80
71772;BME280;59606;52.138;5.424;2023-04-08T07:46:43;102708.75;;;7.49;86.91
71772;BME280;59606;52.138;5.424;2023-04-08T07:49:11;102707.84;;;7.50;87.80
71772;BME280;59606;52.138;5.424;2023-04-08T07:51:38;102709.56;;;7.53;86.04
71772;BME280;59606;52.138;5.424;2023-04-08T07:54:04;102712.16;;;7.54;86.76
71772;BME280;59606;52.138;5.424;2023-04-08T07:56:31;102712.97;;;7.58;86.32
71772;BME280;59606;52.138;5.424;2023-04-08T07:58:57;102709.53;;;7.56;85.79
71772;BME280;59606;52.138;5.424;2023-04-08T08:01:24;102711.22;;;7.62;86.62
71772;BME280;59606;52.138;5.424;2023-04-08T08:03:51;102711.84;;;7.79;87.77
71772;BME280;59606;52.138;5.424;2023-04-08T08:06:19;102712.53;;;7.90;87.19
71772;BME280;59606;52.138;5.424;2023-04-08T08:08:46;102709.78;;;8.02;86.55
71772;BME280;59606;52.138;5.424;2023-04-08T08:11:12;102716.56;;;8.13;85.68
71772;BME280;59606;52.138;5.424;2023-04-08T08:13:39;102718.16;;;8.23;85.70
71772;BME280;59606;52.138;5.424;2023-04-08T08:16:06;102713.84;;;8.22;83.97
71772;BME280;59606;52.138;5.424;2023-04-08T08:18:34;102714.72;;;8.21;85.24
71772;BME280;59606;52.138;5.424;2023-04-08T08:21:01;102722.28;;;8.39;84.96
71772;BME280;59606;52.138;5.424;2023-04-08T08:23:28;102710.00;;;8.49;84.77
71772;BME280;59606;52.138;5.424;2023-04-08T08:26:03;102715.06;;;8.57;84.31
71772;BME280;59606;52.138;5.424;2023-04-08T08:28:30;102725.69;;;8.41;82.52
71772;BME280;59606;52.138;5.424;2023-04-08T08:30:57;102727.38;;;8.45;83.48
71772;BME280;59606;52.138;5.424;2023-04-08T08:33:24;102723.63;;;8.63;83.63
71772;BME280;59606;52.138;5.424;2023-04-08T08:35:51;102732.88;;;8.78;83.47
71772;BME280;59606;52.138;5.424;2023-04-08T08:38:18;102714.59;;;8.86;83.02
71772;BME280;59606;52.138;5.424;2023-04-08T08:40:45;102720.53;;;8.92;82.57
71772;BME280;59606;52.138;5.424;2023-04-08T08:43:11;102724.09;;;8.87;81.22
71772;BME280;59606;52.138;5.424;2023-04-08T08:45:41;102725.03;;;8.81;80.38
71772;BME280;59606;52.138;5.424;2023-04-08T08:48:08;102723.28;;;8.83;80.84
71772;BME280;59606;52.138;5.424;2023-04-08T08:50:35;102729.19;;;8.91;80.87
71772;BME280;59606;52.138;5.424;2023-04-08T08:53:02;102716.88;;;9.03;81.19
71772;BME280;59606;52.138;5.424;2023-04-08T08:55:30;102727.88;;;9.17;81.41
71772;BME280;59606;52.138;5.424;2023-04-08T08:58:19;102731.06;;;9.31;80.10
71772;BME280;59606;52.138;5.424;2023-04-08T09:00:46;102730.03;;;9.40;80.97
71772;BME280;59606;52.138;5.424;2023-04-08T09:03:20;102729.97;;;9.43;80.82
71772;BME280;59606;52.138;5.424;2023-04-08T09:08:32;102734.97;;;9.52;79.88
71772;BME280;59606;52.138;5.424;2023-04-08T09:11:16;102742.00;;;9.49;78.90
71772;BME280;59606;52.138;5.424;2023-04-08T09:13:43;102742.84;;;9.51;78.30
71772;BME280;59606;52.138;5.424;2023-04-08T09:16:12;102741.75;;;9.61;79.71
71772;BME280;59606;52.138;5.424;2023-04-08T09:18:39;102738.81;;;9.78;79.09
71772;BME280;59606;52.138;5.424;2023-04-08T09:21:10;102739.53;;;9.86;79.26
71772;BME280;59606;52.138;5.424;2023-04-08T09:26:12;102745.47;;;9.93;76.62
71772;BME280;59606;52.138;5.424;2023-04-08T09:28:40;102746.16;;;9.99;76.28
71772;BME280;59606;52.138;5.424;2023-04-08T09:31:24;102748.63;;;10.05;75.61
71772;BME280;59606;52.138;5.424;2023-04-08T09:33:56;102757.22;;;10.10;74.76
71772;BME280;59606;52.138;5.424;2023-04-08T09:36:24;102752.00;;;10.10;74.10
71772;BME280;59606;52.138;5.424;2023-04-08T09:38:54;102757.81;;;10.22;74.52
71772;BME280;59606;52.138;5.424;2023-04-08T09:41:21;102758.56;;;10.28;73.32
71772;BME280;59606;52.138;5.424;2023-04-08T09:43:51;102757.66;;;10.31;74.25
71772;BME280;59606;52.138;5.424;2023-04-08T09:46:29;102764.44;;;10.38;74.01
71772;BME280;59606;52.138;5.424;2023-04-08T09:49:04;102758.97;;;10.49;74.37
71772;BME280;59606;52.138;5.424;2023-04-08T09:52:24;102756.94;;;10.61;73.42
71772;BME280;59606;52.138;5.424;2023-04-08T09:57:09;102748.81;;;10.74;71.41
71772;BME280;59606;52.138;5.424;2023-04-08T09:59:37;102750.44;;;10.78;70.73
71772;BME280;59606;52.138;5.424;2023-04-08T10:02:06;102751.06;;;10.88;73.01
71772;BME280;59606;52.138;5.424;2023-04-08T10:04:38;102747.28;;;10.99;72.22
71772;BME280;59606;52.138;5.424;2023-04-08T10:07:07;102743.75;;;11.02;72.60
71772;BME280;59606;52.138;5.424;2023-04-08T10:09:34;102743.72;;;11.03;72.84
71772;BME280;59606;52.138;5.424;2023-04-08T10:12:03;102747.09;;;11.07;72.45
71772;BME280;59606;52.138;5.424;2023-04-08T10:14:30;102738.00;;;11.22;73.13
71772;BME280;59606;52.138;5.424;2023-04-08T10:19:50;102735.78;;;11.39;73.10
71772;BME280;59606;52.138;5.424;2023-04-08T10:27:41;102730.13;;;11.54;67.92
71772;BME280;59606;52.138;5.424;2023-04-08T10:32:56;102735.63;;;11.75;68.64
71772;BME280;59606;52.138;5.424;2023-04-08T10:35:29;102741.41;;;11.88;67.70
71772;BME280;59606;52.138;5.424;2023-04-08T10:37:57;102737.81;;;11.90;65.75
71772;BME280;59606;52.138;5.424;2023-04-08T10:40:24;102728.25;;;11.91;65.82
71772;BME280;59606;52.138;5.424;2023-04-08T10:42:55;102741.06;;;11.98;67.18
71772;BME280;59606;52.138;5.424;2023-04-08T10:45:22;102732.31;;;11.99;65.46
71772;BME280;59606;52.138;5.424;2023-04-08T10:47:48;102739.06;;;12.07;66.21
71772;BME280;59606;52.138;5.424;2023-04-08T10:50:17;102742.53;;;12.07;66.20
71772;BME280;59606;52.138;5.424;2023-04-08T10:52:53;102742.22;;;12.18;66.59
71772;BME280;59606;52.138;5.424;2023-04-08T10:55:26;102733.41;;;12.20;64.86
71772;BME280;59606;52.138;5.424;2023-04-08T10:57:53;102734.31;;;12.19;64.03
71772;BME280;59606;52.138;5.424;2023-04-08T11:00:34;102734.94;;;12.27;64.95
71772;BME280;59606;52.138;5.424;2023-04-08T11:03:06;102725.28;;;12.30;64.49
71772;BME280;59606;52.138;5.424;2023-04-08T11:05:34;102729.38;;;12.38;63.62
71772;BME280;59606;52.138;5.424;2023-04-08T11:08:03;102731.13;;;12.38;62.78
71772;BME280;59606;52.138;5.424;2023-04-08T11:10:30;102727.66;;;12.37;61.37
71772;BME280;59606;52.138;5.424;2023-04-08T11:12:57;102723.97;;;12.44;61.80
71772;BME280;59606;52.138;5.424;2023-04-08T11:15:24;102727.06;;;12.56;63.03
71772;BME280;59606;52.138;5.424;2023-04-08T11:17:50;102717.94;;;12.67;62.96
71772;BME280;59606;52.138;5.424;2023-04-08T11:20:18;102715.13;;;12.73;59.14
71772;BME280;59606;52.138;5.424;2023-04-08T11:22:46;102726.31;;;12.79;59.24
71772;BME280;59606;52.138;5.424;2023-04-08T11:25:13;102721.91;;;12.79;59.11
71772;BME280;59606;52.138;5.424;2023-04-08T11:27:43;102712.22;;;12.83;58.04
71772;BME280;59606;52.138;5.424;2023-04-08T11:30:10;102701.38;;;12.93;57.51
71772;BME280;59606;52.138;5.424;2023-04-08T11:32:37;102713.69;;;12.90;56.27
71772;BME280;59606;52.138;5.424;2023-04-08T11:35:05;102718.19;;;12.86;54.26
71772;BME280;59606;52.138;5.424;2023-04-08T11:37:39;102711.84;;;12.93;57.43
71772;BME280;59606;52.138;5.424;2023-04-08T11:40:10;102712.97;;;13.11;56.20
71772;BME280;59606;52.138;5.424;2023-04-08T11:42:37;102716.25;;;13.16;55.68
71772;BME280;59606;52.138;5.424;2023-04-08T11:45:12;102705.06;;;13.13;56.31
71772;BME280;59606;52.138;5.424;2023-04-08T11:47:38;102718.03;;;13.16;55.53
71772;BME280;59606;52.138;5.424;2023-04-08T11:50:06;102719.50;;;13.25;55.94
71772;BME280;59606;52.138;5.424;2023-04-08T11:52:47;102717.25;;;13.39;55.22
71772;BME280;59606;52.138;5.424;2023-04-08T11:55:25;102724.19;;;13.40;52.68
71772;BME280;59606;52.138;5.424;2023-04-08T11:57:53;102719.69;;;13.43;51.96
71772;BME280;59606;52.138;5.424;2023-04-08T12:00:20;102717.13;;;13.42;50.01
71772;BME280;59606;52.138;5.424;2023-04-08T12:02:48;102717.88;;;13.46;49.45
71772;BME280;59606;52.138;5.424;2023-04-08T12:05:15;102718.50;;;13.52;49.09
71772;BME280;59606;52.138;5.424;2023-04-08T12:07:42;102720.81;;;13.60;50.14
71772;BME280;59606;52.138;5.424;2023-04-08T12:10:09;102715.06;;;13.74;48.96
71772;BME280;59606;52.138;5.424;2023-04-08T12:12:37;102715.06;;;13.74;47.27
71772;BME280;59606;52.138;5.424;2023-04-08T12:15:04;102716.28;;;13.87;45.60
71772;BME280;59606;52.138;5.424;2023-04-08T12:17:31;102715.53;;;14.07;45.99
71772;BME280;59606;52.138;5.424;2023-04-08T12:19:57;102708.19;;;14.15;44.56
71772;BME280;59606;52.138;5.424;2023-04-08T12:22:24;102715.75;;;14.01;44.08
71772;BME280;59606;52.138;5.424;2023-04-08T12:24:50;102710.50;;;13.79;40.57
71772;BME280;59606;52.138;5.424;2023-04-08T12:27:17;102709.94;;;13.71;40.94
71772;BME280;59606;52.138;5.424;2023-04-08T12:29:43;102715.53;;;13.85;42.79
71772;BME280;59606;52.138;5.424;2023-04-08T12:32:11;102714.25;;;13.95;42.76
71772;BME280;59606;52.138;5.424;2023-04-08T12:34:37;102711.38;;;14.01;43.79
71772;BME280;59606;52.138;5.424;2023-04-08T12:37:05;102708.38;;;14.10;43.25
71772;BME280;59606;52.138;5.424;2023-04-08T12:39:31;102711.25;;;14.04;42.40
71772;BME280;59606;52.138;5.424;2023-04-08T12:41:58;102716.38;;;14.07;44.42
71772;BME280;59606;52.138;5.424;2023-04-08T12:44:24;102709.97;;;14.14;45.82
71772;BME280;59606;52.138;5.424;2023-04-08T12:46:51;102710.53;;;14.23;46.71
71772;BME280;59606;52.138;5.424;2023-04-08T12:49:18;102702.53;;;14.26;45.22
71772;BME280;59606;52.138;5.424;2023-04-08T12:51:44;102706.25;;;14.20;45.54
71772;BME280;59606;52.138;5.424;2023-04-08T12:54:11;102710.28;;;14.07;44.36
71772;BME280;59606;52.138;5.424;2023-04-08T12:56:37;102701.50;;;14.08;41.88
71772;BME280;59606;52.138;5.424;2023-04-08T12:59:07;102706.72;;;14.08;44.06
71772;BME280;59606;52.138;5.424;2023-04-08T13:01:36;102710.16;;;14.10;46.61
71772;BME280;59606;52.138;5.424;2023-04-08T13:04:03;102707.22;;;14.18;45.42
71772;BME280;59606;52.138;5.424;2023-04-08T13:06:30;102706.94;;;14.25;47.15
71772;BME280;59606;52.138;5.424;2023-04-08T13:09:00;102712.84;;;14.30;47.31
71772;BME280;59606;52.138;5.424;2023-04-08T13:11:26;102703.81;;;14.37;48.56
71772;BME280;59606;52.138;5.424;2023-04-08T13:13:53;102708.06;;;14.40;49.48
71772;BME280;59606;52.138;5.424;2023-04-08T13:16:19;102701.19;;;14.37;50.70
71772;BME280;59606;52.138;5.424;2023-04-08T13:18:46;102709.78;;;14.41;51.05